Time;durP1;ratioP1;P1;durP2;ratioP2;P2;SDS_P1;SDS_P2;PMS_P1;PMS_P2;Temp;Humidity;BMP_temperature;BMP_pressure;BME280_temperature;BME280_humidity;BME280_pressure;Samples;Min_cycle;Max_cycle;Signal;HPM_P1;HPM_P2
2021/06/21 05:01:39;;;;;;;21.73;6.12;;;;;;;22.19;76.64;100082.67;127571;1089;104120;-75
2021/06/21 05:04:24;;;;;;;29.87;6.50;;;;;;;22.17;75.68;100084.47;125265;1102;105518;-77
2021/06/21 05:06:55;;;;;;;26.73;6.13;;;;;;;22.21;75.99;100086.19;125198;1102;104165;-78
2021/06/21 05:09:25;;;;;;;26.43;5.83;;;;;;;22.24;76.23;100086.12;125067;1102;104297;-79
2021/06/21 05:11:57;;;;;;;24.40;5.80;;;;;;;22.28;76.27;100088.74;125007;1103;104193;-78
2021/06/21 05:14:27;;;;;;;27.57;5.77;;;;;;;22.31;76.05;100081.57;125140;1102;104307;-77
2021/06/21 05:17:01;;;;;;;28.73;5.60;;;;;;;22.32;75.67;100087.82;125125;1102;104140;-79
2021/06/21 05:19:32;;;;;;;22.67;5.03;;;;;;;22.33;75.62;100084.22;125129;1102;104143;-77
2021/06/21 05:22:02;;;;;;;18.20;5.13;;;;;;;22.32;76.15;100077.13;125017;1105;104140;-78
2021/06/21 05:24:33;;;;;;;23.95;5.60;;;;;;;22.37;76.21;100076.11;125140;1102;104220;-78
2021/06/21 05:27:05;;;;;;;22.30;4.80;;;;;;;22.40;76.06;100080.52;124957;1102;104153;-79
2021/06/21 05:29:36;;;;;;;24.67;5.20;;;;;;;22.47;75.94;100079.50;125018;1103;104188;-79
2021/06/21 05:32:08;;;;;;;23.17;5.43;;;;;;;22.50;75.60;100081.21;125153;1102;104248;-79
2021/06/21 05:34:40;;;;;;;29.50;6.33;;;;;;;22.51;75.88;100080.31;124984;1102;104153;-80
2021/06/21 05:37:11;;;;;;;28.87;6.40;;;;;;;22.53;75.55;100087.40;125164;1102;104310;-80
2021/06/21 05:39:43;;;;;;;24.63;5.83;;;;;;;22.55;75.34;100088.23;124917;1102;104399;-79
2021/06/21 05:42:14;;;;;;;27.53;5.30;;;;;;;22.59;75.65;100091.72;124999;1102;104171;-79
2021/06/21 05:44:46;;;;;;;20.83;5.20;;;;;;;22.62;75.14;100086.31;125042;1102;104143;-78
2021/06/21 05:47:21;;;;;;;22.33;4.83;;;;;;;22.65;75.01;100090.73;124990;1102;102275;-79
2021/06/21 05:49:52;;;;;;;22.50;5.17;;;;;;;22.69;75.41;100087.05;124913;1102;104249;-79
2021/06/21 05:52:23;;;;;;;19.60;5.20;;;;;;;22.74;74.98;100093.21;125139;1102;104376;-78
2021/06/21 05:54:58;;;;;;;23.03;5.70;;;;;;;22.76;75.31;100094.05;125009;1102;105505;-79
2021/06/21 05:57:30;;;;;;;29.37;5.80;;;;;;;22.79;74.94;100096.66;124878;1102;104137;-83
2021/06/21 06:00:03;;;;;;;21.37;5.97;;;;;;;22.83;75.07;100089.44;124983;1102;104136;-80
2021/06/21 06:02:41;;;;;;;24.47;5.43;;;;;;;22.88;74.83;100095.59;124899;1102;104219;-81
2021/06/21 06:05:20;;;;;;;23.40;5.53;;;;;;;22.92;74.93;100092.83;125046;1102;104454;-83
2021/06/21 06:07:54;;;;;;;18.80;4.93;;;;;;;22.97;74.74;100092.73;124905;1102;104149;-81
2021/06/21 06:10:30;;;;;;;25.73;5.67;;;;;;;23.01;74.70;100096.20;124986;1102;104262;-79
2021/06/21 06:13:04;;;;;;;24.45;5.70;;;;;;;23.08;74.86;100098.74;124968;1102;104219;-80
2021/06/21 06:15:40;;;;;;;26.67;5.47;;;;;;;23.16;74.65;100095.90;125072;1102;104224;-79
2021/06/21 06:18:10;;;;;;;;;;;;;;;23.15;74.07;100095.03;125038;1102;102129;-79
2021/06/21 06:20:44;;;;;;;21.60;5.17;;;;;;;23.17;74.03;100089.64;124937;1102;104335;-80
2021/06/21 06:23:16;;;;;;;27.20;5.20;;;;;;;23.18;74.10;100091.38;124993;1102;104219;-81
2021/06/21 06:25:55;;;;;;;20.37;5.03;;;;;;;23.25;74.12;100084.98;124962;1102;104233;-78
2021/06/21 06:28:30;;;;;;;22.50;5.07;;;;;;;23.35;74.09;100095.48;125127;1102;104143;-79
2021/06/21 06:31:02;;;;;;;24.47;5.67;;;;;;;23.38;73.89;100088.25;124930;1102;104357;-79
2021/06/21 06:33:38;;;;;;;26.20;6.20;;;;;;;23.38;73.92;100082.02;124933;1103;104203;-77
2021/06/21 06:36:18;;;;;;;25.97;5.37;;;;;;;23.44;73.78;100073.84;124997;1102;104247;-80
2021/06/21 06:38:52;;;;;;;29.70;5.97;;;;;;;23.51;73.92;100067.41;124926;1102;104226;-79
2021/06/21 06:41:27;;;;;;;19.77;5.33;;;;;;;23.61;73.47;100068.08;124994;1102;104300;-79
2021/06/21 06:44:00;;;;;;;23.77;5.30;;;;;;;23.71;73.17;100068.72;125051;1102;104169;-78
2021/06/21 06:46:37;;;;;;;22.45;5.10;;;;;;;23.78;73.58;100073.88;124924;1102;104302;-80
2021/06/21 06:49:18;;;;;;;22.30;5.00;;;;;;;23.91;73.88;100071.79;124978;1102;104306;-83
2021/06/21 06:51:56;;;;;;;26.67;4.97;;;;;;;24.06;73.43;100073.20;125080;1105;104300;-84
2021/06/21 06:54:45;;;;;;;28.60;6.07;;;;;;;24.14;73.34;100083.72;124958;1102;104201;-78
2021/06/21 06:57:19;;;;;;;29.47;5.93;;;;;;;24.22;72.96;100084.37;125001;1102;104158;-81
2021/06/21 06:59:56;;;;;;;23.90;4.83;;;;;;;24.26;73.16;100074.44;125014;1102;104223;-80
2021/06/21 07:02:36;;;;;;;32.00;5.70;;;;;;;24.36;72.85;100082.19;125026;1102;105281;-80
2021/06/21 07:05:14;;;;;;;28.30;6.20;;;;;;;24.54;72.78;100090.63;124877;1102;104168;-82
2021/06/21 07:08:09;;;;;;;21.03;5.30;;;;;;;24.65;72.76;100076.94;125202;1102;119367;-81
2021/06/21 07:10:43;;;;;;;30.97;5.77;;;;;;;24.79;72.61;100079.22;124809;1105;104302;-77
2021/06/21 07:13:22;;;;;;;25.73;5.37;;;;;;;24.92;71.77;100072.58;124875;1105;104149;-79
2021/06/21 07:15:57;;;;;;;20.97;4.93;;;;;;;25.03;71.78;100074.93;124949;1105;104166;-78
2021/06/21 07:18:30;;;;;;;27.17;5.53;;;;;;;25.22;71.60;100073.41;124809;1105;104252;-79
2021/06/21 07:21:04;;;;;;;23.63;5.47;;;;;;;25.46;71.87;100062.84;124856;1105;104811;-78
2021/06/21 07:23:38;;;;;;;31.30;5.53;;;;;;;25.79;71.46;100062.66;124786;1105;104430;-79
2021/06/21 07:26:09;;;;;;;22.70;5.03;;;;;;;26.10;71.19;100059.81;124813;1105;104182;-77
2021/06/21 07:28:43;;;;;;;31.67;5.67;;;;;;;26.43;71.61;100067.59;124781;1105;104319;-77
2021/06/21 07:31:14;;;;;;;25.67;5.50;;;;;;;26.78;70.79;100080.68;124801;1105;104172;-78
2021/06/21 07:33:46;;;;;;;34.53;5.80;;;;;;;27.00;70.58;100075.34;125012;1102;104190;-78
2021/06/21 07:36:18;;;;;;;25.60;5.67;;;;;;;27.15;70.47;100079.25;124824;1105;104213;-79
2021/06/21 07:38:58;;;;;;;29.33;5.83;;;;;;;27.26;70.23;100082.39;125113;1102;104329;-79
2021/06/21 07:41:36;;;;;;;25.73;5.37;;;;;;;27.20;69.81;100085.33;125107;1102;104162;-79
2021/06/21 07:44:10;;;;;;;25.50;5.87;;;;;;;27.16;69.72;100084.58;125164;1102;104134;-79
2021/06/21 07:46:42;;;;;;;24.77;5.37;;;;;;;27.10;68.92;100090.20;125201;1102;104146;-79
2021/06/21 07:49:14;;;;;;;;;;;;;;;26.95;68.42;100088.98;125259;1099;104258;-79
2021/06/21 07:51:48;;;;;;;;;;;;;;;26.84;68.38;100091.22;125322;1102;104158;-79
2021/06/21 07:54:23;;;;;;;31.10;5.50;;;;;;;26.78;68.86;100095.00;125277;1102;104159;-78
2021/06/21 07:56:58;;;;;;;30.10;5.80;;;;;;;26.76;68.87;100102.27;125194;1102;104159;-79
2021/06/21 07:59:33;;;;;;;30.73;5.63;;;;;;;26.80;68.16;100109.30;125246;1102;104407;-79
2021/06/21 08:02:06;;;;;;;28.67;5.40;;;;;;;26.87;68.53;100110.80;125243;1102;104313;-81
2021/06/21 08:04:41;;;;;;;28.87;5.20;;;;;;;27.06;68.24;100116.35;125233;1102;104293;-81
2021/06/21 08:07:17;;;;;;;32.60;6.50;;;;;;;27.33;68.07;100118.06;125160;1102;104615;-79
2021/06/21 08:10:06;;;;;;;34.07;7.00;;;;;;;27.57;68.01;100117.07;125040;1102;104185;-79
2021/06/21 08:12:46;;;;;;;28.40;6.60;;;;;;;27.80;67.73;100109.87;125048;1102;104242;-80
2021/06/21 08:15:25;;;;;;;34.73;6.37;;;;;;;27.81;67.15;100106.20;125060;1102;104280;-79
2021/06/21 08:18:04;;;;;;;31.93;6.47;;;;;;;27.69;67.06;100104.02;125090;1102;104398;-79
2021/06/21 08:20:42;;;;;;;32.10;5.77;;;;;;;27.58;66.87;100099.97;125175;1102;104239;-79
2021/06/21 08:23:18;;;;;;;28.73;5.93;;;;;;;27.48;66.77;100095.89;125210;1102;104392;-78
2021/06/21 08:25:54;;;;;;;29.00;5.63;;;;;;;27.50;66.95;100102.08;125171;1102;104200;-79
2021/06/21 08:28:28;;;;;;;29.90;6.20;;;;;;;27.65;66.57;100108.67;125258;1102;104194;-79
2021/06/21 08:31:02;;;;;;;29.93;5.73;;;;;;;27.66;66.32;100105.05;125130;1102;104409;-80
2021/06/21 08:33:38;;;;;;;34.13;6.13;;;;;;;27.63;65.95;100107.88;125153;1102;104293;-80
2021/06/21 08:36:13;;;;;;;34.43;5.80;;;;;;;27.65;65.92;100108.67;125206;1102;101931;-80
2021/06/21 08:38:47;;;;;;;28.33;5.50;;;;;;;27.80;65.83;100109.87;125259;1101;104219;-77
2021/06/21 08:41:24;;;;;;;26.37;5.80;;;;;;;28.04;65.72;100112.48;125200;1102;104409;-79
2021/06/21 08:46:34;;;;;;;33.00;5.87;;;;;;;28.47;65.20;100121.38;124980;1102;104363;-76
2021/06/21 08:49:09;;;;;;;36.60;5.90;;;;;;;28.62;64.82;100123.42;124944;1102;104177;-77
2021/06/21 08:51:44;;;;;;;27.10;4.97;;;;;;;28.90;64.29;100118.59;124888;1102;104187;-76
2021/06/21 08:54:18;;;;;;;30.83;5.83;;;;;;;28.98;64.03;100129.90;125038;1102;104175;-77
2021/06/21 08:56:54;;;;;;;29.60;5.87;;;;;;;28.97;64.01;100131.73;125208;1102;104147;-79
2021/06/21 08:59:28;;;;;;;28.53;5.90;;;;;;;28.93;63.65;100130.11;125031;1102;104198;-79
2021/06/21 09:02:08;;;;;;;32.83;5.70;;;;;;;29.01;63.75;100130.62;125182;1102;104172;-83
2021/06/21 09:04:42;;;;;;;35.97;6.43;;;;;;;29.15;63.38;100126.41;125136;1102;104172;-83
2021/06/21 09:07:25;;;;;;;27.10;5.57;;;;;;;29.34;63.33;100124.63;125010;1102;104345;-82
2021/06/21 09:10:08;;;;;;;32.10;5.93;;;;;;;29.50;62.83;100126.55;125154;1102;104213;-82
2021/06/21 09:12:50;;;;;;;23.80;4.87;;;;;;;29.55;62.36;100132.63;125120;1102;104758;-81
2021/06/21 09:15:36;;;;;;;29.07;6.00;;;;;;;29.40;62.06;100129.73;125141;1102;104185;-81
2021/06/21 09:18:35;;;;;;;32.48;6.10;;;;;;;29.36;61.93;100138.92;125075;1102;104249;-81
2021/06/21 09:21:25;;;;;;;28.00;5.90;;;;;;;29.43;61.87;100138.63;125077;1103;108803;-83
2021/06/21 09:24:14;;;;;;;31.60;5.50;;;;;;;29.69;61.58;100142.77;125167;1102;104178;-82
2021/06/21 09:26:57;;;;;;;25.23;5.60;;;;;;;29.94;61.28;100143.30;125138;1102;104221;-82
2021/06/21 09:29:41;;;;;;;32.43;6.37;;;;;;;30.18;60.98;100143.00;125015;1102;104130;-82
2021/06/21 09:32:14;;;;;;;25.93;5.60;;;;;;;30.32;60.87;100139.58;124964;1102;104143;-81
2021/06/21 09:34:50;;;;;;;29.45;5.83;;;;;;;30.37;60.28;100145.65;124939;1103;104203;-82
2021/06/21 09:37:21;;;;;;;31.50;6.23;;;;;;;30.40;60.38;100139.20;125022;1102;102019;-80
2021/06/21 09:39:57;;;;;;;33.25;6.15;;;;;;;30.35;59.66;100144.83;125030;1102;104162;-81
2021/06/21 09:42:37;;;;;;;26.53;5.40;;;;;;;30.26;59.57;100140.80;124942;1105;104226;-79
2021/06/21 09:45:17;;;;;;;28.63;5.47;;;;;;;30.08;59.20;100145.31;124861;1102;104211;-80
2021/06/21 09:48:05;;;;;;;30.37;5.28;;;;;;;29.87;59.14;100140.98;124850;1102;104628;-79
2021/06/21 09:50:38;;;;;;;32.57;6.03;;;;;;;29.74;59.11;100136.16;124939;1102;104220;-78
2021/06/21 09:53:11;;;;;;;34.27;6.80;;;;;;;29.81;59.15;100133.18;124969;1105;104306;-81
2021/06/21 09:55:45;;;;;;;32.17;5.33;;;;;;;29.90;59.31;100130.91;125036;1102;104213;-82
2021/06/21 09:58:20;;;;;;;;;;;;;;;29.99;58.39;100126.84;125067;1102;104142;-82
2021/06/21 10:01:12;;;;;;;32.67;6.20;;;;;;;30.03;58.62;100130.25;124904;1102;104175;-82
2021/06/21 10:03:50;;;;;;;30.13;5.80;;;;;;;30.00;58.35;100131.31;125139;1102;104184;-79
2021/06/21 10:06:23;;;;;;;28.47;5.80;;;;;;;29.95;58.48;100130.68;125137;1102;104313;-79
2021/06/21 10:08:56;;;;;;;23.65;4.70;;;;;;;29.94;57.84;100134.33;125099;1102;104169;-79
2021/06/21 10:11:36;;;;;;;26.97;5.62;;;;;;;29.88;57.95;100132.80;125151;1102;104560;-80
2021/06/21 10:14:11;;;;;;;27.43;5.77;;;;;;;29.90;57.90;100130.02;125104;1102;104271;-80
2021/06/21 10:16:46;;;;;;;34.67;6.47;;;;;;;29.95;57.79;100133.38;125067;1102;104140;-80
2021/06/21 10:19:18;;;;;;;33.93;5.70;;;;;;;29.89;57.51;100136.40;125056;1102;104175;-80
2021/06/21 10:21:55;;;;;;;31.80;6.12;;;;;;;29.80;57.35;100134.16;124986;1102;104176;-79
2021/06/21 10:24:31;;;;;;;24.23;5.37;;;;;;;29.71;57.53;100141.72;125042;1102;104235;-81
2021/06/21 10:27:06;;;;;;;33.57;6.20;;;;;;;29.50;56.51;100135.55;125041;1102;104223;-80
2021/06/21 10:29:41;;;;;;;23.87;5.27;;;;;;;29.46;57.11;100135.78;125204;1102;104178;-80
2021/06/21 10:32:15;;;;;;;31.93;6.60;;;;;;;29.46;57.07;100135.78;125085;1102;104303;-81
2021/06/21 10:34:49;;;;;;;29.10;6.17;;;;;;;29.43;56.90;100135.93;125120;1102;104156;-81
2021/06/21 10:37:25;;;;;;;28.20;5.90;;;;;;;29.37;56.89;100129.88;125097;1102;104177;-81
2021/06/21 10:40:06;;;;;;;32.67;7.17;;;;;;;29.38;57.00;100126.20;124916;1102;104239;-81
2021/06/21 10:42:44;;;;;;;22.03;5.03;;;;;;;29.57;56.85;100126.17;125209;1102;104197;-81
2021/06/21 10:45:21;;;;;;;28.63;4.73;;;;;;;29.80;56.92;100123.34;125127;1102;104169;-82
2021/06/21 10:48:09;;;;;;;29.33;5.10;;;;;;;30.06;56.65;100120.17;125156;1102;104206;-80
2021/06/21 10:50:55;;;;;;;24.13;4.53;;;;;;;30.29;56.32;100123.50;125059;1102;104165;-79
2021/06/21 10:53:56;;;;;;;28.97;5.87;;;;;;;30.44;56.15;100117.31;125230;1102;104204;-79
2021/06/21 10:56:44;;;;;;;26.40;5.33;;;;;;;30.53;55.62;100117.80;125121;1102;104305;-79
2021/06/21 10:59:23;;;;;;;28.30;5.47;;;;;;;30.46;55.59;100123.55;125130;1102;104182;-79
2021/06/21 11:02:05;;;;;;;26.33;5.00;;;;;;;30.38;55.21;100120.31;125137;1102;104162;-80
2021/06/21 11:04:51;;;;;;;30.40;5.87;;;;;;;30.34;55.38;100121.45;125200;1102;104172;-81
2021/06/21 11:07:26;;;;;;;25.67;4.57;;;;;;;30.49;55.42;100117.06;125130;1102;104222;-79
2021/06/21 11:10:02;;;;;;;32.30;5.23;;;;;;;30.57;55.25;100119.37;125223;1102;104155;-80
2021/06/21 11:12:41;;;;;;;25.70;4.67;;;;;;;30.62;54.73;100119.98;125109;1102;104188;-80
2021/06/21 11:15:18;;;;;;;25.17;5.13;;;;;;;30.59;54.76;100112.92;125357;1102;104259;-79
2021/06/21 11:18:02;;;;;;;21.37;4.63;;;;;;;30.65;54.03;100114.41;125252;1102;104236;-80
2021/06/21 11:20:37;;;;;;;19.60;4.33;;;;;;;30.68;53.91;100116.08;124875;1102;104290;-77
2021/06/21 11:23:11;;;;;;;24.23;4.60;;;;;;;30.70;53.78;100108.73;125138;1102;104185;-78
2021/06/21 11:25:50;;;;;;;24.83;4.63;;;;;;;30.74;53.77;100116.61;125149;1102;104184;-79
2021/06/21 11:28:42;;;;;;;22.90;4.20;;;;;;;30.77;53.83;100105.61;125177;1102;104271;-78
2021/06/21 11:31:31;;;;;;;22.93;5.20;;;;;;;30.88;53.57;100096.03;125295;1102;104313;-81
2021/06/21 11:34:08;;;;;;;25.00;4.87;;;;;;;31.00;53.18;100096.25;125223;1102;108198;-80
2021/06/21 11:36:50;;;;;;;25.07;4.73;;;;;;;31.06;53.01;100092.34;125268;1102;104354;-79
2021/06/21 11:39:24;;;;;;;20.47;4.40;;;;;;;31.11;52.99;100095.66;125265;1102;104319;-78
2021/06/21 11:42:02;;;;;;;22.67;4.40;;;;;;;31.06;52.83;100081.50;125196;1102;102114;-80
2021/06/21 11:44:52;;;;;;;23.10;4.30;;;;;;;30.97;52.49;100084.72;124952;1102;105152;-79
2021/06/21 11:47:31;;;;;;;24.90;4.43;;;;;;;30.96;52.50;100096.47;125074;1102;104160;-78
2021/06/21 11:50:19;;;;;;;23.77;4.37;;;;;;;30.95;52.27;100103.73;125075;1103;104297;-80
2021/06/21 11:52:54;;;;;;;27.03;4.40;;;;;;;30.97;52.36;100098.27;125249;1102;104219;-80
2021/06/21 11:55:33;;;;;;;25.07;5.13;;;;;;;31.07;52.06;100099.52;125234;1102;104229;-80
2021/06/21 11:58:06;;;;;;;24.60;5.03;;;;;;;31.10;51.97;100095.73;125266;1102;104171;-79
2021/06/21 12:00:45;;;;;;;26.03;4.77;;;;;;;31.14;51.16;100100.90;125155;1103;104156;-78
2021/06/21 12:03:21;;;;;;;21.00;4.23;;;;;;;31.09;51.46;100096.69;125189;1102;104297;-80
2021/06/21 12:06:02;;;;;;;23.67;4.87;;;;;;;30.99;51.30;100104.47;125284;1102;104159;-78
2021/06/21 12:08:40;;;;;;;26.17;5.30;;;;;;;30.79;51.21;100095.59;125240;1102;104157;-79
2021/06/21 12:11:24;;;;;;;23.27;5.80;;;;;;;30.60;51.38;100095.70;125130;1102;104252;-78
2021/06/21 12:14:06;;;;;;;24.17;4.90;;;;;;;30.62;51.38;100092.91;125098;1102;104409;-80
2021/06/21 12:16:45;;;;;;;23.83;4.30;;;;;;;30.72;51.26;100080.63;125170;1102;104152;-79
2021/06/21 12:19:24;;;;;;;27.83;5.30;;;;;;;30.77;51.06;100083.95;125192;1099;104216;-80
2021/06/21 12:21:57;;;;;;;27.73;5.10;;;;;;;30.83;51.20;100086.32;125252;1102;104140;-81
2021/06/21 12:24:32;;;;;;;25.83;4.67;;;;;;;30.94;50.88;100079.45;125137;1102;104181;-78
2021/06/21 12:27:13;;;;;;;24.07;5.00;;;;;;;30.95;50.89;100078.49;125156;1102;104136;-79
2021/06/21 12:29:48;;;;;;;24.03;4.50;;;;;;;30.95;50.64;100079.36;125277;1101;105341;-77
2021/06/21 12:32:28;;;;;;;25.27;4.90;;;;;;;30.77;50.27;100083.95;125198;1102;102983;-78
2021/06/21 12:35:06;;;;;;;27.10;5.13;;;;;;;30.54;50.41;100078.92;125188;1102;104139;-77
2021/06/21 12:37:39;;;;;;;21.70;5.23;;;;;;;30.46;50.37;100073.92;125199;1102;104139;-77
2021/06/21 12:40:18;;;;;;;22.60;4.23;;;;;;;30.41;50.29;100082.29;125210;1101;104176;-77
2021/06/21 12:42:50;;;;;;;20.43;4.27;;;;;;;30.39;50.29;100077.94;125097;1102;104145;-78
2021/06/21 12:45:27;;;;;;;27.47;4.70;;;;;;;30.43;50.23;100080.39;125069;1102;110293;-79
2021/06/21 12:47:59;;;;;;;26.20;5.07;;;;;;;30.55;50.23;100083.39;125201;1102;104284;-77
2021/06/21 12:50:37;;;;;;;28.03;4.57;;;;;;;30.71;50.32;100078.87;125170;1102;104175;-78
2021/06/21 12:53:13;;;;;;;24.97;5.10;;;;;;;30.85;50.25;100083.52;125117;1102;104386;-77
2021/06/21 12:55:45;;;;;;;18.23;4.10;;;;;;;30.95;50.14;100076.65;125193;1102;104309;-77
2021/06/21 12:58:32;;;;;;;29.73;5.33;;;;;;;31.01;49.79;100080.89;125172;1102;104223;-78
2021/06/21 13:01:05;;;;;;;27.63;4.47;;;;;;;31.10;49.86;100080.34;125156;1102;104177;-77
2021/06/21 13:03:48;;;;;;;24.97;4.33;;;;;;;31.24;49.92;100084.98;125134;1102;104166;-77
2021/06/21 13:06:31;;;;;;;24.07;4.90;;;;;;;31.35;49.67;100078.95;125083;1102;108205;-78
2021/06/21 13:09:12;;;;;;;21.57;4.75;;;;;;;31.34;49.23;100083.50;125170;1102;104172;-78
2021/06/21 13:11:56;;;;;;;22.55;4.75;;;;;;;31.30;49.00;100086.48;125152;1103;104213;-77
2021/06/21 13:14:38;;;;;;;30.80;5.40;;;;;;;31.16;48.99;100090.84;125175;1102;104255;-78
2021/06/21 13:17:13;;;;;;;26.20;4.50;;;;;;;31.06;49.12;100092.34;125195;1102;104274;-78
2021/06/21 13:20:00;;;;;;;27.60;4.90;;;;;;;31.06;48.84;100083.34;125123;1102;104194;-79
2021/06/21 13:22:38;;;;;;;24.17;4.53;;;;;;;30.97;48.70;100087.43;125116;1102;104194;-82
2021/06/21 13:25:26;;;;;;;28.20;4.20;;;;;;;30.77;48.41;100085.80;125128;1102;104197;-81
2021/06/21 13:28:03;;;;;;;23.43;4.73;;;;;;;30.57;48.96;100085.03;125113;1102;104328;-78
2021/06/21 13:30:41;;;;;;;29.75;4.70;;;;;;;30.48;48.95;100090.98;125161;1102;104139;-77
2021/06/21 13:33:24;;;;;;;18.73;4.13;;;;;;;30.35;48.97;100088.00;125115;1102;104306;-77
2021/06/21 13:36:07;;;;;;;22.53;4.80;;;;;;;30.25;48.82;100089.46;125174;1102;104185;-78
2021/06/21 13:38:45;;;;;;;28.73;4.47;;;;;;;30.14;48.88;100098.14;125205;1102;105346;-79
2021/06/21 13:41:26;;;;;;;20.73;4.27;;;;;;;30.13;49.11;100095.52;125175;1102;104174;-79
2021/06/21 13:44:13;;;;;;;26.13;4.60;;;;;;;30.10;49.14;100099.23;125285;1102;104236;-80
2021/06/21 13:46:47;;;;;;;27.13;4.90;;;;;;;30.08;49.27;100099.32;125126;1102;104160;-80
2021/06/21 13:49:23;;;;;;;26.30;4.78;;;;;;;30.04;49.05;100104.97;125136;1099;104140;-78
2021/06/21 13:52:10;;;;;;;24.40;4.70;;;;;;;30.01;48.99;100094.30;125181;1101;104140;-79
2021/06/21 13:55:01;;;;;;;28.43;5.60;;;;;;;29.93;49.19;100101.00;125185;1100;104220;-78
2021/06/21 13:57:46;;;;;;;27.98;5.03;;;;;;;29.93;49.20;100097.41;125190;1102;118496;-78
2021/06/21 14:00:34;;;;;;;23.13;4.47;;;;;;;29.96;49.04;100094.54;125106;1102;104149;-79
2021/06/21 14:03:25;;;;;;;24.60;4.93;;;;;;;29.97;49.00;100093.59;125113;1100;104152;-79
2021/06/21 14:05:58;;;;;;;27.07;4.63;;;;;;;29.90;48.87;100094.85;125144;1099;104251;-78
2021/06/21 14:08:33;;;;;;;23.80;4.70;;;;;;;29.82;48.89;100095.25;125161;1102;104284;-80
2021/06/21 14:11:11;;;;;;;22.17;4.20;;;;;;;29.71;49.06;100090.34;125169;1102;104592;-78
2021/06/21 14:13:46;;;;;;;27.53;4.77;;;;;;;29.58;49.31;100108.16;125191;1102;104309;-79
2021/06/21 14:16:25;;;;;;;24.27;4.70;;;;;;;29.46;49.17;100103.34;125117;1102;104207;-80
2021/06/21 14:18:58;;;;;;;27.17;4.60;;;;;;;29.35;49.23;100104.73;125191;1102;104301;-78
2021/06/21 14:21:30;;;;;;;27.10;5.20;;;;;;;29.22;49.33;100106.30;125221;1100;104233;-80
2021/06/21 14:24:12;;;;;;;23.10;5.07;;;;;;;29.14;49.60;100103.03;125136;1102;104315;-79
2021/06/21 14:26:47;;;;;;;29.03;4.77;;;;;;;29.08;49.58;100104.22;125144;1102;104184;-79
2021/06/21 14:29:21;;;;;;;26.17;4.70;;;;;;;29.11;49.45;100095.97;125143;1102;104175;-79
2021/06/21 14:31:56;;;;;;;27.80;4.70;;;;;;;29.05;49.90;100099.83;125110;1102;104028;-78
2021/06/21 14:34:30;;;;;;;26.67;4.90;;;;;;;29.05;49.57;100105.23;125016;1102;104179;-77
2021/06/21 14:37:07;;;;;;;22.83;4.53;;;;;;;29.02;49.71;100102.68;125140;1100;104226;-77
2021/06/21 14:39:39;;;;;;;25.20;4.40;;;;;;;28.99;49.94;100099.26;125129;1102;104238;-78
2021/06/21 14:42:17;;;;;;;25.00;4.37;;;;;;;28.98;49.96;100097.49;125023;1099;104190;-79
2021/06/21 14:44:48;;;;;;;25.23;4.57;;;;;;;28.98;50.16;100092.09;124972;1102;104219;-78
2021/06/21 14:47:21;;;;;;;21.63;4.73;;;;;;;28.93;49.90;100097.70;125040;1102;101794;-78
2021/06/21 14:50:11;;;;;;;;;;;;;;;28.87;50.12;100095.30;125182;1101;104168;-78
2021/06/21 14:52:48;;;;;;;19.67;4.70;;;;;;;28.88;50.06;100094.36;125106;1102;104387;-78
2021/06/21 14:55:22;;;;;;;37.90;5.50;;;;;;;28.89;50.41;100096.12;125167;1101;104171;-77
2021/06/21 14:57:56;;;;;;;30.90;5.23;;;;;;;28.85;50.22;100094.50;125150;1099;104195;-77
2021/06/21 15:00:30;;;;;;;30.43;4.80;;;;;;;28.80;50.42;100094.72;125123;1102;104242;-77
2021/06/21 15:03:02;;;;;;;21.87;4.73;;;;;;;28.77;50.07;100094.86;125030;1099;104169;-77
2021/06/21 15:05:38;;;;;;;25.27;4.47;;;;;;;28.77;50.41;100096.69;125080;1102;104240;-77
2021/06/21 15:08:10;;;;;;;25.13;4.83;;;;;;;28.80;50.50;100088.45;125149;1102;104174;-76
2021/06/21 15:10:42;;;;;;;25.80;4.27;;;;;;;28.81;49.97;100087.48;125008;1102;104229;-76
2021/06/21 15:13:13;;;;;;;22.47;4.57;;;;;;;28.78;50.25;100091.22;125115;1102;104213;-77
2021/06/21 15:15:45;;;;;;;24.83;4.63;;;;;;;28.79;50.02;100094.78;125091;1102;104146;-77
2021/06/21 15:18:16;;;;;;;21.10;4.47;;;;;;;28.77;50.10;100088.59;125007;1102;104389;-77
2021/06/21 15:20:48;;;;;;;21.50;4.40;;;;;;;28.72;50.03;100090.61;125161;1102;104181;-77
2021/06/21 15:23:20;;;;;;;24.13;4.20;;;;;;;28.71;50.12;100078.08;125156;1102;104187;-78
2021/06/21 15:25:53;;;;;;;22.13;3.97;;;;;;;28.69;50.37;100087.11;125071;1102;104207;-77
2021/06/21 15:28:25;;;;;;;22.13;4.67;;;;;;;28.64;50.47;100094.55;125145;1102;104373;-78
2021/06/21 15:30:57;;;;;;;20.33;4.10;;;;;;;28.58;50.31;100089.44;125243;1102;104207;-77
2021/06/21 15:33:31;;;;;;;21.12;4.33;;;;;;;28.51;50.43;100083.38;125190;1102;104485;-77
2021/06/21 15:36:03;;;;;;;24.93;5.37;;;;;;;28.40;50.29;100080.30;125163;1102;104371;-76
2021/06/21 15:38:38;;;;;;;22.83;4.37;;;;;;;28.33;50.01;100087.80;125232;1102;104864;-76
2021/06/21 15:41:12;;;;;;;20.77;4.50;;;;;;;28.31;50.04;100086.11;125229;1102;104338;-76
2021/06/21 15:43:43;;;;;;;32.95;4.60;;;;;;;28.32;50.27;100077.95;125205;1102;104420;-78
2021/06/21 15:46:15;;;;;;;26.00;4.90;;;;;;;28.29;50.29;100072.69;125201;1103;104194;-77
2021/06/21 15:48:48;;;;;;;28.63;5.30;;;;;;;28.25;50.07;100080.98;125169;1102;104354;-76
2021/06/21 15:51:19;;;;;;;31.42;5.85;;;;;;;28.17;50.50;100080.46;125221;1102;104354;-77
2021/06/21 15:53:52;;;;;;;20.37;4.50;;;;;;;28.09;50.18;100075.41;125133;1102;104297;-77
2021/06/21 15:56:26;;;;;;;21.90;3.97;;;;;;;28.02;50.57;100076.59;125212;1101;104156;-77
2021/06/21 15:58:59;;;;;;;23.23;4.40;;;;;;;27.95;50.38;100079.56;125175;1102;104252;-77
2021/06/21 16:01:32;;;;;;;25.40;4.30;;;;;;;27.87;50.77;100081.69;125275;1102;104167;-77
2021/06/21 16:04:04;;;;;;;26.20;5.00;;;;;;;27.82;50.80;100081.02;125294;1102;104187;-77
2021/06/21 16:06:36;;;;;;;22.93;5.20;;;;;;;27.78;50.92;100084.77;125234;1102;104278;-77
2021/06/21 16:09:08;;;;;;;22.70;4.60;;;;;;;27.75;50.77;100087.59;125125;1102;104248;-77
2021/06/21 16:11:39;;;;;;;25.70;5.50;;;;;;;27.72;50.91;100091.31;125212;1099;104149;-77
2021/06/21 16:14:10;;;;;;;25.67;4.30;;;;;;;27.72;51.11;100090.42;125261;1102;104143;-78
2021/06/21 16:16:41;;;;;;;25.53;4.03;;;;;;;27.72;50.70;100082.33;125211;1101;104232;-79
2021/06/21 16:19:19;;;;;;;28.33;4.87;;;;;;;27.75;50.87;100084.90;125260;1102;105536;-79
2021/06/21 16:21:50;;;;;;;22.97;4.90;;;;;;;27.76;51.23;100084.84;125157;1102;104235;-79
2021/06/21 16:24:21;;;;;;;21.20;4.30;;;;;;;27.75;51.37;100079.51;125219;1102;104156;-78
2021/06/21 16:26:52;;;;;;;21.23;4.63;;;;;;;27.75;51.41;100076.81;125241;1102;104283;-77
2021/06/21 16:29:25;;;;;;;25.15;4.40;;;;;;;27.76;51.41;100083.97;125168;1102;104150;-78
2021/06/21 16:31:56;;;;;;;26.67;4.87;;;;;;;27.75;51.37;100083.10;125296;1102;104207;-77
2021/06/21 16:34:28;;;;;;;19.77;4.80;;;;;;;27.74;51.30;100086.73;125232;1102;104415;-77
2021/06/21 16:37:00;;;;;;;19.83;4.33;;;;;;;27.73;51.51;100089.48;125286;1102;104296;-78
2021/06/21 16:39:31;;;;;;;21.17;4.80;;;;;;;27.72;51.66;100090.42;125191;1102;104784;-78
2021/06/21 16:42:02;;;;;;;26.70;4.77;;;;;;;27.72;51.70;100093.11;125297;1102;104294;-77
2021/06/21 16:44:34;;;;;;;25.57;5.10;;;;;;;27.69;51.58;100087.85;125238;1102;104216;-77
2021/06/21 16:47:05;;;;;;;22.47;4.90;;;;;;;27.67;51.48;100089.75;125214;1102;104139;-78